Mineral Wells, TX

6:35 PM CDT on August 03, 2015 (GMT -0500)
Western II, Mineral Wells | | Change Station
CLOSE
Current Station
Personal Weather Station
Location: Mineral Wells, TX
Elevation: 1040 ft
Nearby Weather Stations

Elev 1040 ft 32.82 °N, 98.10 °W | Updated 10 minutes ago

Clear
Clear
98.1 °F
Feels Like 106 °F
N
1.1
Wind Variable Wind from NNW

Today
High -- | Low -- °F
--% Chance of Precip.
Yesterday
High -- | Low -- °F
Precip. -- in
6:47 AM 8:29 PM
Waning Gibbous, 83% visible
Pressure 29.82 in
Visibility 10.0 miles
Clouds Clear
Heat Index 106 °F
Dew Point 70 °F
Humidity 41%
Rainfall 0.00 in
Snow Depth Not available.
UV 3 out of 12
Pollen 4.10 out of 12
Air Quality Not available.
Flu Activity Not available.
METAR KMWL 032253Z AUTO 17004KT 10SM CLR 34/20 A2986 RMK AO2 SLP097 T03440200

More Conditions Fewer Conditions

Pressure 29.82 in
Visibility 10.0 miles
Clouds Clear
Heat Index 106 °F
Dew Point 70 °F
Humidity 41%
Rainfall 0.00 in
Snow Depth Not available.
UV 3 out of 12
Pollen 4.10 out of 12
Air Quality Not available.
Flu Activity Not available.
METAR KMWL 032253Z AUTO 17004KT 10SM CLR 34/20 A2986 RMK AO2 SLP097 T03440200

More Conditions Fewer Conditions

Nowcast | as of 6:14 PM CDT on August 3, 2015

A few sprinkles will be possible mainly along the Red River late this afternoon and into the early evening hours. With dry air entrenched at the surface...rainfall amounts are expected to remain very light. Otherwise...hot conditions are expected to continue through the late afternoon and early evening hours with temperatures in the mid 90s. Skies will range from mostly cloudy along the Red River to mostly sunny elsewhere.

×

10-Day Weather Forecast

×

Almanac

Astronomy

Aug. 03, 2015 Rise Set
Actual Time
Civil Twilight
Nautical Twilight
Astronomical Twilight
Moon
Length of Visible Light
Length of Day
Tomorrow will be .
, % of the Moon is Illuminated

Today's Extremes

State Highs State Lows

Community

WunderPhotos

Upload Photos

1,843,790 photos uploaded!

WunderBlogs® & News

Nearby

Air Quality

  Air Quality AQ Index Pollutant
Not available.

Snow Depth

Station Depth Elevation

Earthquake Activity

City Distance Mag. Time & Date
Minimum magnitude displayed is 2.5.

Coastal Water Temperatures

Place Temperature

Stations

Nearby Weather Stations

Station Location Temp. Windchill Dew Point Humidity Wind Precip. Elev Updated Type